Time;durP1;ratioP1;P1;durP2;ratioP2;P2;SDS_P1;SDS_P2;PMS_P1;PMS_P2;Temp;Humidity;BMP_temperature;BMP_pressure;BME280_temperature;BME280_humidity;BME280_pressure;Samples;Min_cycle;Max_cycle;Signal;HPM_P1;HPM_P2
2022/06/16 00:00:43;;;;;;;3.33;2.40;;;19.30;95.20;;;;;;4995135;28;20186;-77
2022/06/16 00:03:10;;;;;;;3.00;2.80;;;19.20;95.30;;;;;;4993250;28;20593;-77
2022/06/16 00:05:39;;;;;;;3.57;2.50;;;19.20;95.70;;;;;;5007585;28;20906;-77
2022/06/16 00:08:07;;;;;;;2.97;2.40;;;19.10;97.90;;;;;;5007293;28;20471;-75
2022/06/16 00:10:33;;;;;;;1.93;1.80;;;19.10;97.70;;;;;;4992423;28;20420;-75
2022/06/16 00:12:59;;;;;;;2.73;2.53;;;19.00;98.30;;;;;;4992176;28;20974;-74
2022/06/16 00:15:27;;;;;;;6.03;2.40;;;19.00;98.70;;;;;;4991009;28;20433;-75
2022/06/16 00:17:54;;;;;;;4.37;2.10;;;18.90;99.90;;;;;;4990638;28;20408;-75
2022/06/16 00:20:20;;;;;;;2.73;2.47;;;18.90;99.00;;;;;;4990920;28;20427;-74
2022/06/16 00:22:46;;;;;;;3.60;2.40;;;18.80;99.30;;;;;;4992113;28;20450;-75
2022/06/16 00:25:12;;;;;;;2.40;2.20;;;18.80;99.90;;;;;;4992268;28;20417;-75
2022/06/16 00:27:39;;;;;;;2.80;2.60;;;18.70;99.90;;;;;;4991997;28;21290;-74
2022/06/16 00:30:06;;;;;;;6.13;2.43;;;18.60;99.40;;;;;;4991984;28;20417;-77
2022/06/16 00:32:32;;;;;;;4.50;2.80;;;18.60;99.90;;;;;;5006889;28;20447;-74
2022/06/16 00:34:58;;;;;;;5.80;3.20;;;18.70;99.90;;;;;;4991416;28;20467;-74
2022/06/16 00:37:24;;;;;;;4.10;2.87;;;18.70;99.90;;;;;;4991951;28;20196;-75
2022/06/16 00:39:49;;;;;;;5.00;2.50;;;18.60;99.90;;;;;;4991464;28;20851;-76
2022/06/16 00:42:24;;;;;;;3.40;2.67;;;18.60;99.40;;;;;;4991516;28;20219;-75
2022/06/16 00:44:51;;;;;;;3.23;2.80;;;18.70;99.90;;;;;;4991643;28;20702;-75
2022/06/16 00:47:19;;;;;;;4.00;3.20;;;18.60;99.90;;;;;;4991332;28;20795;-75
2022/06/16 00:49:46;;;;;;;16.73;3.20;;;18.50;99.90;;;;;;4989904;28;20431;-75
2022/06/16 00:52:18;;;;;;;3.53;2.90;;;18.40;99.90;;;;;;4990960;28;20512;-75
2022/06/16 00:55:06;;;;;;;4.90;3.50;;;18.40;99.90;;;;;;4974432;28;20425;-74
2022/06/16 00:57:35;;;;;;;3.07;2.60;;;18.40;99.90;;;;;;4991589;28;20420;-74
2022/06/16 01:00:07;;;;;;;5.60;3.20;;;18.40;99.90;;;;;;5006501;28;20624;-76
2022/06/16 01:02:33;;;;;;;3.77;2.90;;;18.30;99.90;;;;;;5006532;28;20474;-74
2022/06/16 01:04:58;;;;;;;4.40;2.53;;;18.30;99.90;;;;;;4990560;28;20864;-74
2022/06/16 01:07:35;;;;;;;3.77;2.90;;;18.30;99.90;;;;;;4991552;28;20217;-74
2022/06/16 01:10:01;;;;;;;4.53;2.70;;;18.20;99.90;;;;;;4991847;28;20183;-76
2022/06/16 01:15:59;;;;;;;4.53;3.00;;;18.20;99.90;;;;;;4992145;28;20492;-77
2022/06/16 01:18:51;;;;;;;3.53;2.83;;;18.10;99.90;;;;;;4990833;28;20464;-77
2022/06/16 01:21:21;;;;;;;4.30;3.27;;;18.10;99.90;;;;;;4969786;28;20428;-79
2022/06/16 01:24:11;;;;;;;11.93;3.20;;;18.00;99.90;;;;;;5007931;28;20449;-78
2022/06/16 01:26:37;;;;;;;3.47;2.90;;;18.00;99.90;;;;;;4991845;28;20437;-78
2022/06/16 01:29:25;;;;;;;3.50;2.87;;;18.00;99.90;;;;;;4991429;28;20498;-79
2022/06/16 01:31:56;;;;;;;7.80;3.30;;;17.90;99.90;;;;;;4990066;28;20475;-78
2022/06/16 01:35:05;;;;;;;5.73;3.70;;;17.90;99.90;;;;;;4989685;28;21174;-76
2022/06/16 01:37:42;;;;;;;9.07;3.37;;;17.80;99.90;;;;;;4970149;28;20431;-75
2022/06/16 01:40:18;;;;;;;9.13;3.33;;;17.80;99.90;;;;;;4991250;28;20413;-77
2022/06/16 01:43:02;;;;;;;6.00;3.13;;;17.70;99.90;;;;;;4990909;28;20446;-77
2022/06/16 01:45:40;;;;;;;5.50;3.27;;;17.70;99.90;;;;;;5006279;28;20829;-76
2022/06/16 01:48:08;;;;;;;4.30;3.10;;;17.60;99.90;;;;;;4989137;28;20610;-76
2022/06/16 01:50:48;;;;;;;5.30;3.50;;;17.60;99.90;;;;;;4990598;28;20418;-77
2022/06/16 01:53:23;;;;;;;5.17;3.70;;;17.60;99.90;;;;;;4990758;28;20440;-76
2022/06/16 01:56:02;;;;;;;4.90;2.93;;;17.70;99.90;;;;;;4990742;28;20432;-76
2022/06/16 01:58:34;;;;;;;4.40;3.03;;;17.60;99.90;;;;;;4990553;28;20420;-75
2022/06/16 02:01:03;;;;;;;5.80;3.10;;;17.60;99.90;;;;;;4990756;28;20409;-76
2022/06/16 02:03:38;;;;;;;3.13;2.83;;;17.60;99.90;;;;;;4990226;28;20448;-77
2022/06/16 02:06:28;;;;;;;4.93;3.17;;;17.50;99.90;;;;;;4990238;28;20414;-76
2022/06/16 02:09:00;;;;;;;3.57;3.23;;;17.40;99.90;;;;;;4990058;28;20457;-76
2022/06/16 02:11:37;;;;;;;4.23;2.73;;;17.30;99.90;;;;;;4990014;28;20405;-76
2022/06/16 02:14:44;;;;;;;4.93;2.90;;;17.30;99.90;;;;;;4989724;28;20515;-76
2022/06/16 02:17:11;;;;;;;5.10;3.60;;;17.20;99.90;;;;;;4976601;28;20430;-76
2022/06/16 02:19:38;;;;;;;4.90;3.23;;;17.30;99.90;;;;;;4989707;28;20503;-77
2022/06/16 02:22:04;;;;;;;12.00;3.10;;;17.30;99.90;;;;;;4988509;28;20835;-77
2022/06/16 02:24:30;;;;;;;5.40;3.37;;;17.20;99.90;;;;;;4988321;28;20421;-77
2022/06/16 02:26:58;;;;;;;4.53;2.90;;;17.10;99.90;;;;;;5004527;28;20190;-77
2022/06/16 02:29:29;;;;;;;3.60;2.40;;;17.00;99.90;;;;;;4989211;28;20472;-76
2022/06/16 02:32:35;;;;;;;6.33;3.17;;;17.00;99.90;;;;;;4989326;28;20432;-76
2022/06/16 02:35:23;;;;;;;3.57;3.23;;;17.10;99.90;;;;;;4989266;28;20987;-75
2022/06/16 02:38:06;;;;;;;6.40;3.50;;;17.10;99.90;;;;;;4989383;28;20405;-74
2022/06/16 02:41:02;;;;;;;5.90;3.30;;;17.20;99.90;;;;;;4989309;28;20788;-75
2022/06/16 02:43:44;;;;;;;4.00;3.00;;;17.20;99.90;;;;;;4989124;28;20910;-75
2022/06/16 02:46:16;;;;;;;3.30;3.00;;;17.20;99.90;;;;;;4989143;28;20468;-75
2022/06/16 02:49:06;;;;;;;3.77;3.13;;;17.20;99.90;;;;;;4987529;28;20466;-75
2022/06/16 02:51:42;;;;;;;3.73;3.30;;;17.20;99.90;;;;;;4987748;28;20476;-74
2022/06/16 02:54:20;;;;;;;3.23;2.93;;;17.20;99.90;;;;;;4987647;28;20441;-74
2022/06/16 02:57:12;;;;;;;4.33;3.10;;;17.10;99.90;;;;;;4987916;28;20808;-75
2022/06/16 02:59:55;;;;;;;2.97;2.70;;;17.10;99.90;;;;;;4990869;28;20431;-75
2022/06/16 03:02:24;;;;;;;5.00;3.37;;;17.10;99.90;;;;;;4993052;28;20412;-75
2022/06/16 03:04:52;;;;;;;4.10;3.50;;;17.10;99.90;;;;;;4992982;28;20432;-76
2022/06/16 03:07:19;;;;;;;5.40;3.10;;;17.10;99.90;;;;;;4992774;28;20439;-75
2022/06/16 03:09:45;;;;;;;6.90;3.60;;;17.10;99.90;;;;;;4992778;28;20420;-75
2022/06/16 03:12:13;;;;;;;3.10;2.80;;;17.10;99.90;;;;;;4992675;28;20450;-75
2022/06/16 03:14:39;;;;;;;3.57;3.27;;;17.10;99.90;;;;;;4992499;28;20543;-75
2022/06/16 03:17:06;;;;;;;4.00;3.40;;;17.10;99.90;;;;;;4991339;28;20427;-76
2022/06/16 03:19:32;;;;;;;5.10;3.53;;;17.10;99.90;;;;;;4991358;28;20801;-76
2022/06/16 03:21:58;;;;;;;6.33;3.67;;;17.00;99.90;;;;;;4993121;28;20435;-76
2022/06/16 03:24:24;;;;;;;2.80;2.60;;;16.80;99.90;;;;;;4991470;28;20224;-77
2022/06/16 03:26:49;;;;;;;3.43;3.00;;;16.60;99.90;;;;;;4992758;28;20200;-75
2022/06/16 03:29:16;;;;;;;9.83;3.03;;;16.50;99.90;;;;;;4991430;28;20486;-78
2022/06/16 03:31:41;;;;;;;3.70;2.80;;;16.60;99.90;;;;;;4991492;28;20800;-79
2022/06/16 03:34:08;;;;;;;5.13;3.37;;;16.60;99.90;;;;;;4992851;28;20439;-76
2022/06/16 03:36:34;;;;;;;3.60;3.30;;;16.60;99.90;;;;;;4991579;28;20424;-76
2022/06/16 03:39:01;;;;;;;3.93;3.10;;;16.60;99.90;;;;;;4992661;28;20467;-77
2022/06/16 03:41:27;;;;;;;4.90;3.10;;;16.60;99.90;;;;;;4991436;28;20467;-79
2022/06/16 03:43:53;;;;;;;5.03;3.50;;;16.70;99.90;;;;;;4992212;28;20468;-81
2022/06/16 03:46:19;;;;;;;4.10;3.33;;;16.70;99.90;;;;;;5010775;28;20519;-81
2022/06/16 03:48:44;;;;;;;3.53;3.20;;;16.70;99.90;;;;;;5010242;28;20259;-82
2022/06/16 03:51:10;;;;;;;5.03;3.40;;;16.70;99.90;;;;;;4994592;28;20459;-80
2022/06/16 03:53:36;;;;;;;3.63;2.90;;;16.80;99.90;;;;;;4995934;28;20206;-81
2022/06/16 03:56:03;;;;;;;4.70;3.90;;;16.90;99.90;;;;;;5012217;28;20197;-81
2022/06/16 03:58:29;;;;;;;4.20;3.33;;;17.00;99.90;;;;;;5011537;28;20439;-82
2022/06/16 04:00:55;;;;;;;6.30;3.40;;;17.10;99.90;;;;;;4998404;28;20440;-81
2022/06/16 04:06:05;;;;;;;4.63;3.40;;;17.30;99.90;;;;;;4994060;28;20281;-82
2022/06/16 04:08:31;;;;;;;10.23;3.47;;;17.50;99.90;;;;;;4994338;28;20628;-83
2022/06/16 04:10:56;;;;;;;3.20;3.00;;;17.60;99.90;;;;;;4997403;28;20193;-81
2022/06/16 04:13:23;;;;;;;3.83;2.90;;;17.60;99.90;;;;;;4996854;28;20225;-81
2022/06/16 04:15:51;;;;;;;3.63;2.63;;;17.70;99.90;;;;;;5012983;28;20236;-79
2022/06/16 04:18:20;;;;;;;4.00;3.60;;;17.80;99.90;;;;;;5007088;28;21274;-77
2022/06/16 04:20:46;;;;;;;5.77;3.43;;;17.80;99.90;;;;;;5007627;28;20577;-77
2022/06/16 04:23:13;;;;;;;3.27;2.97;;;17.80;99.90;;;;;;5002468;28;20993;-79
2022/06/16 04:25:39;;;;;;;5.97;3.73;;;17.70;99.90;;;;;;4994525;28;20436;-77
2022/06/16 04:28:06;;;;;;;3.47;3.17;;;17.70;99.90;;;;;;4990226;28;20472;-77
2022/06/16 04:30:33;;;;;;;3.30;3.00;;;17.70;99.90;;;;;;5007068;28;20468;-77
2022/06/16 04:32:59;;;;;;;5.00;3.00;;;17.70;99.90;;;;;;4990309;28;20459;-79
2022/06/16 04:35:28;;;;;;;5.60;2.97;;;17.80;99.90;;;;;;4993078;28;20495;-79
2022/06/16 04:37:54;;;;;;;5.77;2.90;;;17.90;99.90;;;;;;4993142;28;20428;-80
2022/06/16 04:40:20;;;;;;;4.03;3.40;;;17.90;99.90;;;;;;5008404;28;20528;-80
2022/06/16 04:42:46;;;;;;;3.30;3.00;;;18.00;99.90;;;;;;4993560;28;20455;-81
2022/06/16 04:45:12;;;;;;;3.67;3.37;;;18.00;99.90;;;;;;4991420;28;20432;-81
2022/06/16 04:47:39;;;;;;;3.33;2.93;;;18.00;99.90;;;;;;4991461;28;20220;-80
2022/06/16 04:50:06;;;;;;;3.93;2.60;;;18.00;99.90;;;;;;4974393;28;20435;-82
2022/06/16 04:52:32;;;;;;;3.20;2.87;;;18.10;99.90;;;;;;5006994;28;20598;-82
2022/06/16 04:54:58;;;;;;;4.47;3.47;;;18.20;99.90;;;;;;4990370;28;20469;-82
2022/06/16 04:57:24;;;;;;;8.30;3.60;;;18.40;99.90;;;;;;4974575;28;20264;-82
2022/06/16 04:59:49;;;;;;;5.43;3.20;;;18.30;99.90;;;;;;5006772;28;20199;-83
2022/06/16 05:02:15;;;;;;;6.20;3.70;;;18.40;99.90;;;;;;4990492;28;20189;-82
2022/06/16 05:04:42;;;;;;;4.87;3.60;;;18.50;99.90;;;;;;4973320;28;20189;-76
2022/06/16 05:07:08;;;;;;;7.50;3.57;;;18.40;99.90;;;;;;4990614;28;20242;-76
2022/06/16 05:09:34;;;;;;;3.30;3.07;;;18.40;99.90;;;;;;4990414;28;21278;-75
2022/06/16 05:12:00;;;;;;;3.60;3.30;;;18.50;99.90;;;;;;4990725;28;20189;-76
2022/06/16 05:14:25;;;;;;;9.13;3.77;;;18.50;99.90;;;;;;4988769;28;20469;-76
2022/06/16 05:16:51;;;;;;;7.40;3.40;;;18.60;99.90;;;;;;4972848;28;20220;-77
2022/06/16 05:19:17;;;;;;;5.57;3.07;;;18.70;99.90;;;;;;4990469;28;20193;-76
2022/06/16 05:21:43;;;;;;;4.60;3.57;;;18.90;99.90;;;;;;4988741;28;20189;-76
2022/06/16 05:24:08;;;;;;;6.57;4.00;;;19.00;99.90;;;;;;4990153;28;20210;-75
2022/06/16 05:26:35;;;;;;;4.30;3.33;;;19.00;99.90;;;;;;4988850;28;20655;-75
2022/06/16 05:29:00;;;;;;;5.10;3.40;;;19.20;99.90;;;;;;5004961;28;20220;-76
2022/06/16 05:31:26;;;;;;;6.37;3.97;;;19.20;99.90;;;;;;4990342;28;20462;-76
2022/06/16 05:33:51;;;;;;;5.27;3.53;;;19.20;99.90;;;;;;4989975;28;20264;-75
2022/06/16 05:36:18;;;;;;;4.97;3.80;;;19.30;99.90;;;;;;4972327;28;20188;-75
2022/06/16 05:38:44;;;;;;;8.03;3.53;;;19.30;99.90;;;;;;4990239;28;20185;-76
2022/06/16 05:41:14;;;;;;;4.20;3.33;;;19.40;99.90;;;;;;4990002;28;20966;-76
2022/06/16 05:43:41;;;;;;;5.87;4.20;;;19.40;99.90;;;;;;4988661;28;20447;-75
2022/06/16 05:46:13;;;;;;;11.13;3.47;;;19.40;99.90;;;;;;4988704;28;20425;-75
2022/06/16 05:48:39;;;;;;;4.60;3.30;;;19.40;99.90;;;;;;4991294;28;20457;-75
2022/06/16 05:51:07;;;;;;;4.00;3.13;;;19.50;99.90;;;;;;4988492;28;20427;-76
2022/06/16 05:53:33;;;;;;;5.23;3.93;;;19.70;99.90;;;;;;4989891;28;20535;-75
2022/06/16 05:55:59;;;;;;;6.60;3.70;;;19.90;99.90;;;;;;4987011;28;20495;-76
2022/06/16 05:58:24;;;;;;;5.30;3.50;;;20.20;99.90;;;;;;4986854;28;20190;-77
2022/06/16 06:00:50;;;;;;;9.37;3.80;;;20.30;99.90;;;;;;4988383;28;20193;-75
2022/06/16 06:03:16;;;;;;;6.93;3.10;;;20.30;99.90;;;;;;4988449;28;20705;-75
2022/06/16 06:05:42;;;;;;;9.17;3.80;;;20.50;99.90;;;;;;4988377;28;20453;-75
2022/06/16 06:16:25;;;;;;;4.77;3.93;;;21.10;99.90;;;;;;4988587;28;20400;-75
2022/06/16 06:18:58;;;;;;;6.53;3.97;;;21.30;99.90;;;;;;4988782;28;20428;-77
2022/06/16 06:24:11;;;;;;;4.23;3.80;;;21.50;99.90;;;;;;4988915;28;20471;-77
2022/06/16 06:26:38;;;;;;;6.00;3.60;;;21.50;99.90;;;;;;5003811;28;20429;-76
2022/06/16 06:29:05;;;;;;;8.00;4.20;;;21.60;99.90;;;;;;5004327;28;21021;-76
2022/06/16 06:31:31;;;;;;;4.10;3.80;;;21.60;99.90;;;;;;4987869;28;20428;-76
2022/06/16 06:33:56;;;;;;;4.50;3.50;;;21.70;99.90;;;;;;4988464;28;20519;-76
2022/06/16 06:36:22;;;;;;;5.13;4.33;;;21.90;99.90;;;;;;4989544;28;20528;-76
2022/06/16 06:38:48;;;;;;;5.90;3.60;;;21.90;99.90;;;;;;4987997;28;20617;-77
2022/06/16 06:41:14;;;;;;;6.67;3.90;;;22.00;99.90;;;;;;4989505;28;20507;-76
2022/06/16 06:43:40;;;;;;;4.60;3.87;;;22.20;99.90;;;;;;4987690;28;20226;-76
2022/06/16 06:46:06;;;;;;;5.50;3.97;;;22.20;99.90;;;;;;4989139;28;20456;-77
2022/06/16 06:48:32;;;;;;;5.73;4.57;;;22.10;99.90;;;;;;4987400;28;20235;-77
2022/06/16 06:50:58;;;;;;;4.20;3.83;;;22.00;99.90;;;;;;4988578;28;20612;-77
2022/06/16 06:53:24;;;;;;;7.00;4.33;;;22.00;99.90;;;;;;4987254;28;20216;-76
2022/06/16 06:55:49;;;;;;;6.70;5.10;;;22.10;99.90;;;;;;4988697;28;20268;-76
2022/06/16 06:58:21;;;;;;;5.87;4.60;;;22.20;99.90;;;;;;4988560;28;20272;-76
2022/06/16 07:00:49;;;;;;;4.87;4.27;;;22.40;99.90;;;;;;4989067;28;20529;-77
2022/06/16 07:03:15;;;;;;;3.90;3.27;;;22.70;99.90;;;;;;4987237;28;20442;-76
2022/06/16 07:05:41;;;;;;;5.50;3.80;;;23.00;99.90;;;;;;4987000;28;20433;-76
2022/06/16 07:08:06;;;;;;;6.30;3.80;;;23.20;99.90;;;;;;5003365;28;20217;-77
2022/06/16 07:10:32;;;;;;;4.73;3.73;;;23.20;99.90;;;;;;4987248;28;20192;-76
2022/06/16 07:12:58;;;;;;;10.20;4.20;;;23.20;99.90;;;;;;4988425;28;20237;-76
2022/06/16 07:15:24;;;;;;;6.23;3.90;;;23.30;99.90;;;;;;4986968;28;20197;-77
2022/06/16 07:17:49;;;;;;;4.47;3.40;;;23.60;99.90;;;;;;4988670;28;20181;-76
2022/06/16 07:20:16;;;;;;;6.80;4.00;;;23.80;99.90;;;;;;4988446;28;20244;-76
2022/06/16 07:22:46;;;;;;;9.63;3.27;;;23.90;99.90;;;;;;4986930;28;20214;-75
2022/06/16 07:25:13;;;;;;;3.50;3.20;;;23.80;99.90;;;;;;4988447;28;20419;-75
2022/06/16 07:27:38;;;;;;;6.20;3.87;;;23.80;99.90;;;;;;4988243;28;21055;-76
2022/06/16 07:30:13;;;;;;;4.80;3.60;;;23.80;99.90;;;;;;4988388;28;20422;-76
2022/06/16 07:32:38;;;;;;;9.00;3.53;;;23.80;99.90;;;;;;4988249;28;20202;-75
2022/06/16 07:35:04;;;;;;;11.73;3.90;;;23.80;99.30;;;;;;5003079;28;20484;-77
2022/06/16 07:37:30;;;;;;;7.27;3.77;;;23.70;99.90;;;;;;4988227;28;20550;-77
2022/06/16 07:39:56;;;;;;;3.40;2.87;;;23.80;98.60;;;;;;4988695;28;20570;-80
2022/06/16 07:42:21;;;;;;;3.23;2.90;;;24.10;97.40;;;;;;4987800;28;20235;-79
2022/06/16 07:44:47;;;;;;;5.90;3.13;;;24.50;96.50;;;;;;4989191;28;20180;-80
2022/06/16 07:47:13;;;;;;;5.00;3.50;;;24.80;96.00;;;;;;4974634;28;20196;-79
2022/06/16 07:49:39;;;;;;;4.10;3.40;;;24.80;95.00;;;;;;4992350;28;20292;-78
2022/06/16 07:52:05;;;;;;;8.83;4.10;;;24.80;96.40;;;;;;5007452;28;20183;-78
2022/06/16 07:54:31;;;;;;;5.50;4.07;;;24.80;97.70;;;;;;5007433;28;20451;-80
2022/06/16 07:56:57;;;;;;;6.97;3.70;;;24.80;92.80;;;;;;4992968;28;20422;-79
2022/06/16 07:59:23;;;;;;;4.97;3.00;;;24.70;93.00;;;;;;4992812;28;20433;-81
2022/06/16 08:01:49;;;;;;;3.80;3.40;;;24.70;94.40;;;;;;4993028;28;20432;-81
2022/06/16 08:04:15;;;;;;;7.27;3.40;;;24.70;91.90;;;;;;5007994;28;20459;-80
2022/06/16 08:06:41;;;;;;;7.33;2.83;;;24.70;90.60;;;;;;4991598;28;20194;-80
2022/06/16 08:09:10;;;;;;;4.57;3.40;;;24.90;92.30;;;;;;4990786;28;20546;-80
2022/06/16 08:14:21;;;;;;;5.73;3.30;;;25.40;92.60;;;;;;4992138;28;20565;-78
2022/06/16 08:16:47;;;;;;;4.33;3.30;;;25.70;92.80;;;;;;4992376;28;20415;-81
2022/06/16 08:19:12;;;;;;;4.00;3.60;;;25.80;91.00;;;;;;4991249;28;20957;-78
2022/06/16 08:21:38;;;;;;;3.53;3.17;;;25.70;91.40;;;;;;4991116;28;20179;-79
2022/06/16 08:24:06;;;;;;;5.20;3.60;;;25.70;91.20;;;;;;4991315;28;20208;-79
2022/06/16 08:26:32;;;;;;;4.23;3.43;;;25.90;91.40;;;;;;4989235;28;20437;-79
2022/06/16 08:28:58;;;;;;;5.23;3.30;;;26.10;90.80;;;;;;4990631;28;20473;-78
2022/06/16 08:31:24;;;;;;;5.00;3.17;;;26.10;90.70;;;;;;4990442;28;20564;-78
2022/06/16 08:33:52;;;;;;;3.67;3.10;;;26.10;90.00;;;;;;4990325;28;20448;-79
2022/06/16 08:36:18;;;;;;;5.20;3.10;;;26.10;88.20;;;;;;5006500;28;20417;-79
2022/06/16 08:38:43;;;;;;;5.30;3.80;;;26.20;88.70;;;;;;4989735;28;20434;-79
2022/06/16 08:41:33;;;;;;;4.40;3.43;;;26.10;90.30;;;;;;4990070;28;20422;-78
2022/06/16 08:44:03;;;;;;;3.57;3.27;;;26.00;89.20;;;;;;4990981;28;20288;-80
2022/06/16 08:46:35;;;;;;;10.13;3.87;;;26.30;90.00;;;;;;4991036;28;20424;-79
2022/06/16 08:49:18;;;;;;;6.70;3.63;;;26.40;90.10;;;;;;5007237;28;20467;-80
2022/06/16 08:52:02;;;;;;;4.73;3.40;;;26.60;88.10;;;;;;4991908;28;20392;-80
2022/06/16 08:54:47;;;;;;;3.90;3.30;;;26.80;86.30;;;;;;4990192;28;20431;-78
2022/06/16 08:57:30;;;;;;;8.03;3.50;;;26.60;85.70;;;;;;4992000;28;20777;-79
2022/06/16 09:00:07;;;;;;;5.63;3.37;;;26.90;84.80;;;;;;4990806;28;20396;-79
2022/06/16 09:02:42;;;;;;;4.03;3.47;;;27.00;83.20;;;;;;4992158;28;20445;-80
2022/06/16 09:05:24;;;;;;;7.37;3.87;;;27.20;84.20;;;;;;4993173;28;20399;-80
2022/06/16 09:08:05;;;;;;;8.40;4.13;;;27.00;86.00;;;;;;4990690;28;20549;-80
2022/06/16 09:10:41;;;;;;;5.73;4.03;;;27.10;88.20;;;;;;4992578;28;20413;-80
2022/06/16 09:13:45;;;;;;;8.60;4.37;;;27.60;86.50;;;;;;4991952;28;20470;-81
2022/06/16 09:16:32;;;;;;;7.20;3.90;;;28.10;86.50;;;;;;4931442;29;20416;-81
2022/06/16 09:19:13;;;;;;;6.30;3.70;;;28.10;84.30;;;;;;4988264;28;20423;-80
2022/06/16 09:21:56;;;;;;;4.33;3.33;;;28.00;82.90;;;;;;4993173;28;20401;-81
2022/06/16 09:24:39;;;;;;;4.77;3.80;;;27.90;84.50;;;;;;4992225;28;20429;-80
2022/06/16 09:27:17;;;;;;;5.97;3.73;;;27.30;84.60;;;;;;4990732;28;20886;-81
2022/06/16 09:30:05;;;;;;;3.83;3.53;;;27.00;85.60;;;;;;4991577;28;21001;-80
2022/06/16 09:32:37;;;;;;;4.23;3.80;;;26.70;89.00;;;;;;5007223;28;20448;-80
2022/06/16 09:35:10;;;;;;;5.57;4.00;;;26.50;90.20;;;;;;4992154;28;20413;-81
2022/06/16 09:37:44;;;;;;;5.53;3.80;;;26.40;90.80;;;;;;4992264;28;20476;-81
2022/06/16 09:40:42;;;;;;;11.43;5.33;;;26.30;91.50;;;;;;4992334;28;20425;-81
2022/06/16 09:43:14;;;;;;;5.20;3.80;;;26.10;91.70;;;;;;4983489;28;20563;-80
2022/06/16 09:45:54;;;;;;;8.57;5.07;;;26.10;93.20;;;;;;5005911;28;20413;-80
2022/06/16 09:48:27;;;;;;;5.93;5.27;;;26.40;92.30;;;;;;5006011;28;20460;-80
2022/06/16 09:51:34;;;;;;;4.90;4.53;;;26.90;90.90;;;;;;4990167;28;21099;-80
2022/06/16 09:54:14;;;;;;;7.17;4.47;;;27.40;89.70;;;;;;4930462;29;20511;-80
2022/06/16 09:56:48;;;;;;;5.30;4.40;;;28.00;87.70;;;;;;4984706;28;20882;-80
2022/06/16 09:59:30;;;;;;;7.20;4.80;;;28.40;83.80;;;;;;4989622;28;20875;-80
2022/06/16 10:02:01;;;;;;;10.43;4.50;;;28.60;82.70;;;;;;5005285;28;20429;-76
2022/06/16 10:04:27;;;;;;;11.57;4.80;;;28.40;84.30;;;;;;4990491;28;20436;-76
2022/06/16 10:07:24;;;;;;;4.60;3.77;;;28.50;85.70;;;;;;4990645;28;20592;-75
2022/06/16 10:10:02;;;;;;;10.33;4.80;;;28.70;84.10;;;;;;4995214;28;20978;-77
2022/06/16 10:12:50;;;;;;;5.37;4.70;;;28.70;84.40;;;;;;4992666;28;20511;-77
2022/06/16 10:15:36;;;;;;;5.60;4.20;;;28.60;83.30;;;;;;4991238;28;20437;-77
2022/06/16 10:18:06;;;;;;;4.50;4.10;;;28.70;83.70;;;;;;4978558;28;20849;-77
2022/06/16 10:20:32;;;;;;;6.47;4.60;;;28.50;83.50;;;;;;4988836;28;20483;-76
2022/06/16 10:23:31;;;;;;;11.43;4.27;;;28.70;84.70;;;;;;4988743;28;20491;-77
2022/06/16 10:26:01;;;;;;;6.80;4.20;;;28.90;87.70;;;;;;4988244;28;21256;-77
2022/06/16 10:28:34;;;;;;;4.00;3.60;;;28.90;83.50;;;;;;4988527;28;20488;-78
2022/06/16 10:31:02;;;;;;;6.13;3.30;;;28.90;80.20;;;;;;4989058;28;20425;-78
2022/06/16 10:33:31;;;;;;;5.70;3.23;;;29.10;80.30;;;;;;4989319;28;20441;-79
2022/06/16 10:36:06;;;;;;;5.33;3.70;;;29.30;76.90;;;;;;5004186;28;20938;-79
2022/06/16 10:38:41;;;;;;;11.30;3.60;;;29.20;75.90;;;;;;4988470;28;20424;-78
2022/06/16 10:41:32;;;;;;;5.33;3.50;;;29.30;78.00;;;;;;5005339;28;20428;-79
2022/06/16 10:44:00;;;;;;;3.63;3.30;;;29.50;77.20;;;;;;4990107;28;20588;-79
2022/06/16 10:46:32;;;;;;;8.67;3.10;;;29.60;77.10;;;;;;5004050;28;20432;-78
2022/06/16 10:49:01;;;;;;;7.17;4.10;;;29.60;74.60;;;;;;4988892;28;20480;-76
2022/06/16 10:51:29;;;;;;;5.30;3.77;;;29.80;75.10;;;;;;4988542;28;20413;-77
2022/06/16 10:54:22;;;;;;;3.47;3.17;;;29.80;74.30;;;;;;4988208;28;20436;-76
2022/06/16 10:56:48;;;;;;;4.80;3.37;;;29.90;76.40;;;;;;4988550;28;20426;-76
2022/06/16 10:59:14;;;;;;;7.83;3.37;;;30.10;72.10;;;;;;4988626;28;20425;-77
2022/06/16 11:01:47;;;;;;;4.43;3.27;;;30.20;72.90;;;;;;4988682;28;20427;-77
2022/06/16 11:04:25;;;;;;;4.90;3.10;;;30.20;75.80;;;;;;4988459;28;20295;-78
2022/06/16 11:06:56;;;;;;;5.80;3.63;;;30.30;72.30;;;;;;4988738;28;20409;-76
2022/06/16 11:09:30;;;;;;;4.53;2.57;;;30.40;71.10;;;;;;4988435;28;20475;-76
2022/06/16 11:12:02;;;;;;;5.10;3.40;;;30.40;68.80;;;;;;4988568;28;20405;-76
2022/06/16 11:14:48;;;;;;;3.73;2.60;;;30.50;71.00;;;;;;4987210;28;20465;-79
2022/06/16 11:17:22;;;;;;;7.10;3.20;;;30.60;67.90;;;;;;4988833;28;20450;-77
2022/06/16 11:20:15;;;;;;;4.13;2.50;;;30.70;68.70;;;;;;4990383;28;20864;-76
2022/06/16 11:22:45;;;;;;;6.77;3.77;;;30.70;66.70;;;;;;4992305;28;20428;-76
2022/06/16 11:25:21;;;;;;;5.30;3.20;;;30.80;67.30;;;;;;4992271;28;20435;-76
2022/06/16 11:27:56;;;;;;;4.23;2.80;;;30.80;69.90;;;;;;4991878;28;20964;-76
2022/06/16 11:30:41;;;;;;;7.30;3.40;;;30.70;68.30;;;;;;4992411;28;20400;-76
2022/06/16 11:34:06;;;;;;;4.50;3.00;;;30.70;68.50;;;;;;4992113;28;20570;-75
2022/06/16 11:36:08;;;;;;;5.73;3.27;;;30.60;68.70;;;;;;4991710;28;20956;-75
2022/06/16 11:38:43;;;;;;;4.20;2.93;;;30.50;68.90;;;;;;4992343;28;20419;-76
2022/06/16 11:41:15;;;;;;;4.33;3.50;;;30.50;70.50;;;;;;4992756;28;20492;-76
2022/06/16 11:44:13;;;;;;;4.87;3.50;;;30.60;69.20;;;;;;4992292;28;20499;-76
2022/06/16 11:46:49;;;;;;;5.83;3.10;;;30.50;70.30;;;;;;4940192;28;20483;-77
2022/06/16 11:49:32;;;;;;;5.07;3.03;;;30.40;70.00;;;;;;4990529;28;20527;-75
2022/06/16 11:51:58;;;;;;;4.97;3.13;;;30.50;70.50;;;;;;5006601;28;20417;-77
2022/06/16 11:54:42;;;;;;;3.80;3.50;;;30.10;70.40;;;;;;4991608;28;20548;-76
2022/06/16 11:57:11;;;;;;;7.50;3.23;;;30.10;69.50;;;;;;4991399;28;20166;-76
2022/06/16 12:00:02;;;;;;;5.30;3.63;;;30.30;70.70;;;;;;4989569;28;20430;-77
2022/06/16 12:02:44;;;;;;;4.73;3.40;;;30.00;71.10;;;;;;4990960;28;21030;-77
2022/06/16 12:05:35;;;;;;;7.80;4.20;;;30.10;69.40;;;;;;4991221;28;20408;-76
2022/06/16 12:08:33;;;;;;;5.30;3.30;;;30.10;70.80;;;;;;4990663;28;20523;-78
2022/06/16 12:11:08;;;;;;;8.50;3.10;;;30.10;69.40;;;;;;4991090;28;20504;-76
2022/06/16 12:13:37;;;;;;;5.13;3.40;;;30.20;69.00;;;;;;4990600;28;20551;-76
2022/06/16 12:16:18;;;;;;;5.60;3.27;;;30.30;70.60;;;;;;4991611;28;20918;-77
2022/06/16 12:18:50;;;;;;;6.50;2.57;;;30.10;69.20;;;;;;5005907;28;20424;-76
2022/06/16 12:21:31;;;;;;;12.27;3.30;;;30.00;71.60;;;;;;4990587;28;20831;-77
2022/06/16 12:24:18;;;;;;;7.37;3.43;;;30.10;70.50;;;;;;4990585;28;20448;-76
2022/06/16 12:27:02;;;;;;;12.10;3.37;;;30.00;69.90;;;;;;4990528;28;20927;-76
2022/06/16 12:29:44;;;;;;;5.77;2.90;;;29.80;68.30;;;;;;4990647;28;20944;-77
2022/06/16 12:32:20;;;;;;;3.63;3.30;;;30.00;68.90;;;;;;4990265;28;20405;-77
2022/06/16 12:35:07;;;;;;;4.83;2.73;;;30.10;68.80;;;;;;4991091;28;20463;-76
2022/06/16 12:37:42;;;;;;;3.77;3.37;;;30.20;67.90;;;;;;4991431;28;20420;-76
2022/06/16 12:40:16;;;;;;;5.10;2.97;;;30.20;69.30;;;;;;4991711;28;20389;-77
2022/06/16 12:42:49;;;;;;;3.37;3.00;;;30.10;69.40;;;;;;4994512;28;20431;-76
2022/06/16 12:45:19;;;;;;;3.60;3.10;;;30.20;68.70;;;;;;5008903;28;20452;-76
2022/06/16 12:47:57;;;;;;;2.80;2.50;;;30.20;70.20;;;;;;4993360;28;20421;-77
2022/06/16 12:50:30;;;;;;;4.33;3.50;;;30.20;67.20;;;;;;5013062;28;20921;-76
2022/06/16 12:53:28;;;;;;;4.20;2.80;;;30.10;66.50;;;;;;4996869;28;20476;-76
2022/06/16 12:56:15;;;;;;;4.80;3.10;;;30.20;66.10;;;;;;4960880;28;20576;-76
2022/06/16 12:58:54;;;;;;;8.30;2.87;;;30.20;67.50;;;;;;4993817;28;20401;-76
2022/06/16 13:01:21;;;;;;;3.40;2.80;;;30.20;68.90;;;;;;4992720;28;20930;-76
2022/06/16 13:04:04;;;;;;;3.40;3.10;;;30.10;65.80;;;;;;4993144;28;20554;-76
2022/06/16 13:06:32;;;;;;;2.93;2.73;;;30.10;66.30;;;;;;4993181;28;20496;-77
2022/06/16 13:09:00;;;;;;;5.17;2.90;;;30.20;66.90;;;;;;5007425;28;20550;-77
2022/06/16 13:11:45;;;;;;;3.90;3.00;;;30.30;65.50;;;;;;4990415;28;20423;-78
2022/06/16 13:14:18;;;;;;;2.93;2.73;;;30.20;65.80;;;;;;4991508;28;20496;-76
2022/06/16 13:16:45;;;;;;;4.00;2.90;;;30.30;65.90;;;;;;4990933;28;20941;-78
2022/06/16 13:19:38;;;;;;;4.10;2.90;;;30.20;66.30;;;;;;4989133;28;20436;-76
2022/06/16 13:22:06;;;;;;;7.70;2.87;;;30.10;65.70;;;;;;4984083;28;20434;-77
2022/06/16 13:24:39;;;;;;;2.97;2.70;;;29.90;65.90;;;;;;4990265;28;20528;-76
2022/06/16 13:27:11;;;;;;;3.93;2.87;;;30.00;65.80;;;;;;4989820;28;20417;-77
2022/06/16 13:29:59;;;;;;;3.90;2.30;;;30.00;65.60;;;;;;4989881;28;20465;-77
2022/06/16 13:33:07;;;;;;;10.73;3.03;;;30.10;67.30;;;;;;4980358;28;20417;-76